Time;durP1;ratioP1;P1;durP2;ratioP2;P2;SDS_P1;SDS_P2;PMS_P1;PMS_P2;Temp;Humidity;BMP_temperature;BMP_pressure;BME280_temperature;BME280_humidity;BME280_pressure;Samples;Min_cycle;Max_cycle;Signal;HPM_P1;HPM_P2
2023/11/10 06:46:41;;;;;;;2.97;2.65;;;;;;;;;;6261055;22;20027;-86
2023/11/10 06:49:07;;;;;;;4.10;2.90;;;;;;;;;;6250909;22;20382;-87
2023/11/10 06:51:33;;;;;;;2.58;2.38;;;;;;;;;;6251409;22;20027;-87
2023/11/10 06:53:59;;;;;;;3.08;2.67;;;;;;;;;;6277619;22;20035;-88
2023/11/10 06:56:25;;;;;;;2.97;2.78;;;;;;;;;;6250647;22;20338;-86
2023/11/10 06:58:50;;;;;;;3.28;2.97;;;;;;;;;;6250454;22;20000;-87
2023/11/10 07:01:17;;;;;;;3.95;2.63;;;;;;;;;;6277820;22;20000;-86
2023/11/10 07:03:42;;;;;;;2.95;2.67;;;;;;;;;;6277702;22;20007;-93
2023/11/10 07:06:08;;;;;;;3.58;2.92;;;;;;;;;;6277991;22;20300;-87
2023/11/10 07:08:34;;;;;;;4.13;3.03;;;;;;;;;;6277603;22;20002;-87
2023/11/10 07:11:02;;;;;;;2.70;2.50;;;;;;;;;;6277249;22;20376;-87
2023/11/10 07:13:41;;;;;;;2.90;2.60;;;;;;;;;;5111394;27;20385;-86
2023/11/10 07:16:07;;;;;;;4.03;2.80;;;;;;;;;;5111548;28;20528;-87
2023/11/10 11:35:14;;;;;;;3.13;2.67;;;;;;;;;;4929364;29;20103;-88
2023/11/10 11:37:42;;;;;;;3.97;2.80;;;;;;;;;;4901495;29;20043;-90
2023/11/10 11:40:09;;;;;;;2.72;2.53;;;;;;;;;;4917144;29;20534;-90
2023/11/10 11:42:40;;;;;;;2.50;2.22;;;;;;;;;;4916485;29;20047;-90
2023/11/10 11:45:16;;;;;;;2.85;2.45;;;;;;;;;;4904029;29;20372;-93
2023/11/10 11:47:43;;;;;;;2.90;2.70;;;;;;;;;;4916620;29;20035;-91
2023/11/10 11:50:10;;;;;;;2.97;2.70;;;;;;;;;;4900971;29;20039;-92
2023/11/10 11:52:36;;;;;;;2.33;2.13;;;;;;;;;;4916423;29;20032;-92
2023/11/10 11:55:02;;;;;;;2.90;2.65;;;;;;;;;;4916521;29;20490;-93
2023/11/10 11:57:30;;;;;;;2.58;2.33;;;;;;;;;;4918554;29;20030;-88
2023/11/10 11:59:55;;;;;;;2.85;2.50;;;;;;;;;;4919774;29;20039;-84
2023/11/10 12:02:21;;;;;;;2.75;2.47;;;;;;;;;;4920578;29;20032;-87
2023/11/10 12:04:46;;;;;;;3.00;2.70;;;;;;;;;;4920605;29;20036;-87
2023/11/10 12:07:12;;;;;;;3.28;2.97;;;;;;;;;;4920707;29;20479;-87
2023/11/10 12:09:38;;;;;;;3.63;3.03;;;;;;;;;;4920521;29;20533;-86
2023/11/10 12:12:04;;;;;;;3.95;2.60;;;;;;;;;;4920071;29;20028;-86
2023/11/10 12:14:30;;;;;;;3.28;2.97;;;;;;;;;;4920732;29;20447;-86
2023/11/10 12:16:56;;;;;;;2.40;2.20;;;;;;;;;;4920324;29;20167;-86
2023/11/10 12:19:23;;;;;;;2.78;2.58;;;;;;;;;;4920225;29;20473;-86
2023/11/10 12:21:50;;;;;;;2.92;2.65;;;;;;;;;;4920344;29;20028;-85
2023/11/10 12:24:19;;;;;;;2.58;1.98;;;;;;;;;;4920251;29;20107;-85
2023/11/10 12:26:47;;;;;;;2.53;2.30;;;;;;;;;;4920085;29;20036;-86
2023/11/10 12:29:17;;;;;;;2.63;2.00;;;;;;;;;;4919951;29;20028;-86
2023/11/10 12:31:50;;;;;;;2.35;2.15;;;;;;;;;;4919880;29;20055;-86
2023/11/10 12:40:30;;;;;;;2.20;2.00;;;;;;;;;;5518828;23;20126;-92
2023/11/10 12:45:48;;;;;;;2.20;1.95;;;;;;;;;;5279943;23;20053;-88
2023/11/10 16:55:51;;;;;;;13.10;9.45;;;;;;;;;;4975202;28;20103;-87
2023/11/10 16:58:16;;;;;;;6.05;3.15;;;;;;;;;;4977749;28;20043;-90
2023/11/10 17:00:42;;;;;;;6.03;3.22;;;;;;;;;;4975875;28;20477;-90
2023/11/10 17:03:07;;;;;;;4.20;3.55;;;;;;;;;;4976945;28;20030;-91
2023/11/10 17:05:34;;;;;;;10.77;7.30;;;;;;;;;;4977263;28;20185;-90
2023/11/10 17:08:00;;;;;;;9.50;7.38;;;;;;;;;;4976052;28;20030;-91
2023/11/10 17:10:25;;;;;;;17.92;12.20;;;;;;;;;;4977427;28;20098;-91
2023/11/10 17:12:52;;;;;;;4.68;4.28;;;;;;;;;;4975967;28;20069;-91
2023/11/10 17:15:17;;;;;;;5.95;3.65;;;;;;;;;;4977215;28;20110;-91
2023/11/10 17:17:44;;;;;;;5.53;4.13;;;;;;;;;;4976111;28;20500;-91
2023/11/10 17:20:10;;;;;;;4.78;3.85;;;;;;;;;;4976626;28;20501;-89
2023/11/10 17:22:36;;;;;;;4.93;3.63;;;;;;;;;;4976960;28;20500;-89
2023/11/10 17:25:02;;;;;;;4.18;3.78;;;;;;;;;;4976986;28;20031;-89
2023/11/10 17:27:27;;;;;;;4.72;3.50;;;;;;;;;;4975872;28;20031;-89
2023/11/10 17:29:53;;;;;;;7.05;6.35;;;;;;;;;;4975505;28;20099;-89
2023/11/10 17:32:20;;;;;;;6.70;5.50;;;;;;;;;;4976107;28;20027;-88
2023/11/10 17:34:49;;;;;;;4.00;3.55;;;;;;;;;;4975251;28;20474;-89
2023/11/10 17:37:15;;;;;;;5.00;3.47;;;;;;;;;;4975237;28;20593;-88
2023/11/10 17:39:40;;;;;;;5.38;3.53;;;;;;;;;;4976077;28;20057;-87
2023/11/10 17:42:06;;;;;;;4.47;3.45;;;;;;;;;;4976210;28;20474;-92
2023/11/10 17:44:33;;;;;;;6.15;3.95;;;;;;;;;;4976405;28;20469;-89
2023/11/10 17:46:59;;;;;;;7.70;4.15;;;;;;;;;;4976665;28;20034;-88
2023/11/10 17:49:25;;;;;;;5.22;3.83;;;;;;;;;;4976005;28;20105;-91
2023/11/10 20:20:44;;;;;;;9.13;5.72;;;;;;;;;;5384405;23;20045;-86
2023/11/10 20:23:09;;;;;;;5.60;4.85;;;;;;;;;;4998281;28;20047;-86
2023/11/10 20:25:37;;;;;;;6.53;5.10;;;;;;;;;;4995817;28;20033;-87
2023/11/10 20:28:04;;;;;;;9.13;7.15;;;;;;;;;;4997095;28;20030;-86
2023/11/10 20:30:30;;;;;;;8.48;7.60;;;;;;;;;;4995554;28;20034;-86
2023/11/10 20:32:56;;;;;;;30.05;16.17;;;;;;;;;;4997116;28;20026;-86
2023/11/10 20:35:21;;;;;;;211.00;84.75;;;;;;;;;;4995506;28;20026;-86
2023/11/10 20:37:47;;;;;;;26.60;14.27;;;;;;;;;;4995512;28;20046;-86
2023/11/10 20:40:14;;;;;;;10.27;7.22;;;;;;;;;;4995550;28;20037;-87
2023/11/10 20:42:41;;;;;;;8.95;6.38;;;;;;;;;;4995662;28;20469;-86
2023/11/10 20:45:08;;;;;;;5.63;4.70;;;;;;;;;;4995796;28;20034;-86
2023/11/10 20:47:33;;;;;;;5.40;4.40;;;;;;;;;;4995316;28;20023;-86
2023/11/10 20:49:59;;;;;;;8.27;5.53;;;;;;;;;;4996651;28;20057;-86
2023/11/10 20:52:25;;;;;;;7.93;5.45;;;;;;;;;;4996657;28;20037;-86
2023/11/10 20:54:51;;;;;;;5.65;4.55;;;;;;;;;;4996595;28;20490;-86
2023/11/10 20:57:17;;;;;;;4.05;3.65;;;;;;;;;;4996434;28;20026;-86
2023/11/10 20:59:42;;;;;;;5.60;3.00;;;;;;;;;;4995199;28;20023;-86
2023/11/10 21:02:08;;;;;;;3.55;3.00;;;;;;;;;;4995155;28;20392;-86
2023/11/10 21:04:33;;;;;;;3.85;3.45;;;;;;;;;;4996512;28;20496;-86
2023/11/10 21:06:59;;;;;;;4.93;4.43;;;;;;;;;;4996243;28;20030;-86
2023/11/10 21:09:25;;;;;;;6.32;4.68;;;;;;;;;;4995050;28;20038;-86
2023/11/10 21:11:51;;;;;;;4.40;3.53;;;;;;;;;;4996383;28;20027;-88
2023/11/10 21:14:16;;;;;;;4.30;3.90;;;;;;;;;;4995035;28;20030;-86
2023/11/10 21:16:42;;;;;;;4.05;3.42;;;;;;;;;;4995029;28;20049;-86
2023/11/10 21:19:07;;;;;;;4.10;3.70;;;;;;;;;;4995908;28;20038;-86
2023/11/10 21:21:33;;;;;;;4.28;3.58;;;;;;;;;;4996001;28;20089;-86
2023/11/10 21:23:58;;;;;;;4.50;3.70;;;;;;;;;;4996085;28;20030;-86
2023/11/10 21:26:24;;;;;;;4.15;3.75;;;;;;;;;;4996090;28;20049;-86
2023/11/10 21:28:49;;;;;;;3.80;3.45;;;;;;;;;;4995903;28;20030;-86
2023/11/10 21:31:15;;;;;;;3.83;3.33;;;;;;;;;;4995945;28;20097;-86
2023/11/10 21:33:40;;;;;;;4.43;3.63;;;;;;;;;;4995657;28;20102;-86
2023/11/10 21:36:06;;;;;;;3.97;3.58;;;;;;;;;;4994467;28;20066;-86
2023/11/10 21:38:32;;;;;;;4.45;4.03;;;;;;;;;;4995566;28;20110;-86
2023/11/10 21:40:59;;;;;;;4.65;4.18;;;;;;;;;;4995830;28;20038;-86
2023/11/10 21:43:24;;;;;;;4.22;3.55;;;;;;;;;;4994395;28;20034;-86
2023/11/10 21:45:50;;;;;;;4.07;3.70;;;;;;;;;;4978135;28;20033;-86
2023/11/10 21:48:17;;;;;;;6.28;4.22;;;;;;;;;;4995420;28;20130;-86
2023/11/10 21:50:46;;;;;;;4.03;3.63;;;;;;;;;;4994181;28;20022;-86
2023/11/10 21:53:12;;;;;;;6.45;4.55;;;;;;;;;;4994246;28;20038;-86
2023/11/10 21:55:38;;;;;;;6.30;5.03;;;;;;;;;;4994238;28;20027;-86
2023/11/10 21:58:04;;;;;;;4.25;3.83;;;;;;;;;;4995088;28;20026;-88
2023/11/10 22:00:31;;;;;;;5.22;3.70;;;;;;;;;;4995302;28;20408;-86
2023/11/10 22:02:58;;;;;;;4.85;3.45;;;;;;;;;;4995319;28;20026;-86
2023/11/10 22:05:24;;;;;;;4.15;3.75;;;;;;;;;;4995455;28;20033;-86
2023/11/10 22:07:50;;;;;;;4.00;3.70;;;;;;;;;;4993878;28;20037;-86
2023/11/10 22:10:15;;;;;;;6.35;4.00;;;;;;;;;;4995102;28;20042;-86
2023/11/10 22:12:41;;;;;;;4.95;4.40;;;;;;;;;;4993750;28;20026;-88
2023/11/10 22:15:12;;;;;;;6.95;4.85;;;;;;;;;;4995063;28;20511;-87
2023/11/10 22:17:37;;;;;;;6.70;5.32;;;;;;;;;;4993736;28;20184;-86
2023/11/10 22:20:07;;;;;;;12.98;9.70;;;;;;;;;;4995163;28;20529;-86
2023/11/10 22:22:39;;;;;;;10.88;6.32;;;;;;;;;;4994867;28;20050;-86
2023/11/10 22:25:05;;;;;;;8.48;5.32;;;;;;;;;;4995142;28;20026;-87
2023/11/10 22:27:31;;;;;;;4.07;3.67;;;;;;;;;;4993686;28;20076;-86
2023/11/10 22:29:57;;;;;;;11.27;6.53;;;;;;;;;;4993524;28;20476;-86
2023/11/10 22:32:22;;;;;;;11.48;7.53;;;;;;;;;;4993393;28;20045;-86
2023/11/10 22:34:48;;;;;;;10.90;5.97;;;;;;;;;;4994908;28;20047;-86
2023/11/10 22:37:13;;;;;;;87.40;48.42;;;;;;;;;;4993409;28;20033;-86
2023/11/10 22:39:39;;;;;;;24.50;15.43;;;;;;;;;;4994754;28;20096;-86
2023/11/10 22:42:05;;;;;;;134.75;67.55;;;;;;;;;;4994292;28;20062;-86
2023/11/10 22:44:32;;;;;;;5.50;3.67;;;;;;;;;;4994527;28;20030;-86
2023/11/10 22:46:59;;;;;;;55.75;28.45;;;;;;;;;;4994526;28;20023;-86
2023/11/10 22:49:24;;;;;;;18.88;11.15;;;;;;;;;;4994487;28;20030;-86
2023/11/10 22:51:50;;;;;;;17.60;10.57;;;;;;;;;;4993736;28;20362;-86
2023/11/10 22:54:15;;;;;;;8.95;6.05;;;;;;;;;;4994616;28;20389;-86
2023/11/10 22:56:40;;;;;;;8.70;5.95;;;;;;;;;;4993179;28;20030;-86
2023/11/10 22:59:06;;;;;;;8.15;4.70;;;;;;;;;;4993041;28;20092;-86
2023/11/10 23:01:32;;;;;;;13.40;4.55;;;;;;;;;;4994753;28;20122;-88
